Portada
METAR-TAF:

METAR-TAF

Aeropuertos :

Aeropuerto de Uagadugú

Uagadugú, Burkina Faso

latitud: 12-21N, longitud: 001-31W, altitud: 316 m

Observación

El informe se hizo hace 31 minutos, a las 18:00 UTC
Viento 2 kt del noreste
Temperatura 32°C
Humedad 8%
Presión 1011 hPa
Visibilidad: 8000 m

METAR: DFFD 161800Z 05002KT 8000 NSC 32/M06 Q1011 NOSIG

Hora: 18:31 (18:31 UTC)

Pronóstico

El informe se hizo hace 1 hora y 31 minutos, a las 17:00 UTC
Pronóstico válido del 16 a las 18 UTC al 17 a las 24 UTC
Viento 8 kt del este
Visibilidad: 8000 m
Temporalmente
del 17 a las 06 UTC al 17 a las 10 UTC
Visibilidad: 4000 m
calima

TAF: DFFD 161700Z 1618/1724 08008KT 8000 NSC TEMPO 1706/1710 4000 HZ

Observaciones y pronósticos meteorológicos de más de 4000 aeropuertos (mensajes METAR y TAF).

Los puntos amarillos y rojos representan las estaciones disponibles.

Ponga el ratón en el punto deseado para ver el nombre de la estación.

Haga clic para ver las observaciones y los pronósticos meteorológicos.

Para cambiar el mapa : haga clic en los botones verdes con una cruz de color negro para hacer un zoom, en el botón verde con un guión para alejar o en las flechas verdes para mapas adyacentes.


METAR-TAF: